sensor_id;sensor_type;location;lat;lon;timestamp;P1;durP1;ratioP1;P2;durP2;ratioP2
62110;SDS011;48102;47.526;19.072;2022-12-08T04:44:21;9.05;;;7.37;;
62110;SDS011;48102;47.526;19.072;2022-12-08T04:47:24;6.82;;;6.30;;
62110;SDS011;48102;47.526;19.072;2022-12-08T04:50:27;9.20;;;7.62;;
62110;SDS011;48102;47.526;19.072;2022-12-08T04:53:31;8.50;;;7.60;;
62110;SDS011;48102;47.526;19.072;2022-12-08T04:56:34;9.95;;;7.80;;
62110;SDS011;48102;47.526;19.072;2022-12-08T04:59:37;9.43;;;7.12;;
62110;SDS011;48102;47.526;19.072;2022-12-08T05:02:39;10.70;;;8.75;;
62110;SDS011;48102;47.526;19.072;2022-12-08T05:08:45;8.15;;;7.45;;
62110;SDS011;48102;47.526;19.072;2022-12-08T05:11:48;10.43;;;9.07;;
62110;SDS011;48102;47.526;19.072;2022-12-08T05:14:50;14.85;;;10.60;;
62110;SDS011;48102;47.526;19.072;2022-12-08T05:17:53;14.00;;;7.80;;
62110;SDS011;48102;47.526;19.072;2022-12-08T05:20:56;12.25;;;8.65;;
62110;SDS011;48102;47.526;19.072;2022-12-08T05:23:58;13.50;;;8.38;;
62110;SDS011;48102;47.526;19.072;2022-12-08T05:27:01;12.45;;;9.20;;
62110;SDS011;48102;47.526;19.072;2022-12-08T05:30:04;19.60;;;11.55;;
62110;SDS011;48102;47.526;19.072;2022-12-08T05:33:09;11.45;;;9.27;;
62110;SDS011;48102;47.526;19.072;2022-12-08T05:36:13;10.98;;;8.98;;
62110;SDS011;48102;47.526;19.072;2022-12-08T05:39:16;12.30;;;9.45;;
62110;SDS011;48102;47.526;19.072;2022-12-08T05:42:19;13.13;;;8.65;;
62110;SDS011;48102;47.526;19.072;2022-12-08T05:45:26;12.37;;;8.68;;
62110;SDS011;48102;47.526;19.072;2022-12-08T05:48:29;12.00;;;8.85;;
62110;SDS011;48102;47.526;19.072;2022-12-08T05:51:32;12.30;;;9.65;;
62110;SDS011;48102;47.526;19.072;2022-12-08T05:54:35;10.75;;;7.85;;
62110;SDS011;48102;47.526;19.072;2022-12-08T05:57:37;15.85;;;8.32;;
62110;SDS011;48102;47.526;19.072;2022-12-08T06:00:40;14.43;;;9.98;;
62110;SDS011;48102;47.526;19.072;2022-12-08T06:03:44;10.07;;;8.20;;
62110;SDS011;48102;47.526;19.072;2022-12-08T06:06:46;12.43;;;9.27;;
62110;SDS011;48102;47.526;19.072;2022-12-08T06:09:49;16.90;;;10.15;;
62110;SDS011;48102;47.526;19.072;2022-12-08T06:12:52;14.43;;;10.30;;
62110;SDS011;48102;47.526;19.072;2022-12-08T06:15:55;15.68;;;9.32;;
62110;SDS011;48102;47.526;19.072;2022-12-08T06:18:57;13.85;;;10.18;;
62110;SDS011;48102;47.526;19.072;2022-12-08T06:22:00;14.25;;;9.73;;
62110;SDS011;48102;47.526;19.072;2022-12-08T06:25:03;13.40;;;9.68;;
62110;SDS011;48102;47.526;19.072;2022-12-08T06:28:11;13.15;;;9.10;;
62110;SDS011;48102;47.526;19.072;2022-12-08T06:31:21;13.75;;;9.57;;
62110;SDS011;48102;47.526;19.072;2022-12-08T06:34:25;13.77;;;9.85;;
62110;SDS011;48102;47.526;19.072;2022-12-08T06:37:28;10.77;;;9.70;;
62110;SDS011;48102;47.526;19.072;2022-12-08T06:40:31;8.98;;;7.93;;
62110;SDS011;48102;47.526;19.072;2022-12-08T06:43:33;9.52;;;8.40;;
62110;SDS011;48102;47.526;19.072;2022-12-08T06:46:36;11.65;;;9.02;;
62110;SDS011;48102;47.526;19.072;2022-12-08T06:49:39;10.50;;;6.80;;
62110;SDS011;48102;47.526;19.072;2022-12-08T06:52:42;9.43;;;7.72;;
62110;SDS011;48102;47.526;19.072;2022-12-08T06:56:02;11.45;;;8.00;;
62110;SDS011;48102;47.526;19.072;2022-12-08T06:59:05;10.20;;;7.25;;
62110;SDS011;48102;47.526;19.072;2022-12-08T07:02:08;13.25;;;9.35;;
62110;SDS011;48102;47.526;19.072;2022-12-08T07:05:12;9.23;;;7.65;;
62110;SDS011;48102;47.526;19.072;2022-12-08T07:08:15;12.60;;;9.00;;
62110;SDS011;48102;47.526;19.072;2022-12-08T07:11:18;16.12;;;9.27;;
62110;SDS011;48102;47.526;19.072;2022-12-08T07:14:23;13.75;;;8.57;;
62110;SDS011;48102;47.526;19.072;2022-12-08T07:17:26;13.43;;;8.05;;
62110;SDS011;48102;47.526;19.072;2022-12-08T07:20:29;9.40;;;6.87;;
62110;SDS011;48102;47.526;19.072;2022-12-08T07:23:32;15.00;;;10.25;;
62110;SDS011;48102;47.526;19.072;2022-12-08T07:26:34;10.48;;;8.55;;
62110;SDS011;48102;47.526;19.072;2022-12-08T07:29:37;10.73;;;9.15;;
62110;SDS011;48102;47.526;19.072;2022-12-08T07:32:40;12.25;;;9.57;;
62110;SDS011;48102;47.526;19.072;2022-12-08T07:35:43;11.93;;;7.20;;
62110;SDS011;48102;47.526;19.072;2022-12-08T07:38:50;14.70;;;7.85;;
62110;SDS011;48102;47.526;19.072;2022-12-08T07:41:58;21.50;;;9.18;;
62110;SDS011;48102;47.526;19.072;2022-12-08T07:45:00;8.98;;;7.95;;
62110;SDS011;48102;47.526;19.072;2022-12-08T07:48:04;10.15;;;7.85;;
62110;SDS011;48102;47.526;19.072;2022-12-08T07:51:07;12.35;;;8.15;;
62110;SDS011;48102;47.526;19.072;2022-12-08T07:54:12;14.63;;;8.27;;
62110;SDS011;48102;47.526;19.072;2022-12-08T07:57:14;10.85;;;8.55;;
62110;SDS011;48102;47.526;19.072;2022-12-08T08:00:18;11.10;;;8.20;;
62110;SDS011;48102;47.526;19.072;2022-12-08T08:03:21;12.32;;;7.65;;
62110;SDS011;48102;47.526;19.072;2022-12-08T08:06:24;13.27;;;8.85;;
62110;SDS011;48102;47.526;19.072;2022-12-08T08:09:27;10.82;;;7.75;;
62110;SDS011;48102;47.526;19.072;2022-12-08T08:12:29;11.25;;;8.40;;
62110;SDS011;48102;47.526;19.072;2022-12-08T08:15:34;14.60;;;10.50;;
62110;SDS011;48102;47.526;19.072;2022-12-08T08:18:38;12.80;;;9.95;;
62110;SDS011;48102;47.526;19.072;2022-12-08T08:21:41;14.10;;;10.82;;
62110;SDS011;48102;47.526;19.072;2022-12-08T08:24:47;15.85;;;9.43;;
62110;SDS011;48102;47.526;19.072;2022-12-08T08:27:50;19.98;;;11.05;;
62110;SDS011;48102;47.526;19.072;2022-12-08T08:30:53;13.75;;;8.90;;
62110;SDS011;48102;47.526;19.072;2022-12-08T08:33:56;13.20;;;9.55;;
62110;SDS011;48102;47.526;19.072;2022-12-08T08:36:59;27.10;;;11.05;;
62110;SDS011;48102;47.526;19.072;2022-12-08T08:40:02;14.15;;;10.20;;
62110;SDS011;48102;47.526;19.072;2022-12-08T08:43:05;14.10;;;10.00;;
62110;SDS011;48102;47.526;19.072;2022-12-08T08:46:08;13.80;;;10.55;;
62110;SDS011;48102;47.526;19.072;2022-12-08T08:49:11;15.07;;;10.45;;
62110;SDS011;48102;47.526;19.072;2022-12-08T08:52:14;13.75;;;10.20;;
62110;SDS011;48102;47.526;19.072;2022-12-08T08:55:17;14.55;;;9.77;;
62110;SDS011;48102;47.526;19.072;2022-12-08T08:58:20;12.77;;;9.75;;
62110;SDS011;48102;47.526;19.072;2022-12-08T09:01:24;15.85;;;10.32;;
62110;SDS011;48102;47.526;19.072;2022-12-08T09:04:28;13.05;;;9.02;;
62110;SDS011;48102;47.526;19.072;2022-12-08T09:07:31;16.12;;;10.35;;
62110;SDS011;48102;47.526;19.072;2022-12-08T09:10:34;14.82;;;10.57;;
62110;SDS011;48102;47.526;19.072;2022-12-08T09:13:37;12.63;;;9.77;;
62110;SDS011;48102;47.526;19.072;2022-12-08T09:19:43;13.40;;;9.82;;
62110;SDS011;48102;47.526;19.072;2022-12-08T09:22:46;16.05;;;9.88;;
62110;SDS011;48102;47.526;19.072;2022-12-08T09:25:49;14.35;;;10.43;;
62110;SDS011;48102;47.526;19.072;2022-12-08T09:28:52;20.88;;;10.50;;
62110;SDS011;48102;47.526;19.072;2022-12-08T09:31:56;12.82;;;9.65;;
62110;SDS011;48102;47.526;19.072;2022-12-08T09:34:59;23.67;;;11.68;;
62110;SDS011;48102;47.526;19.072;2022-12-08T09:38:02;17.15;;;11.82;;
62110;SDS011;48102;47.526;19.072;2022-12-08T09:48:32;12.60;;;10.02;;
62110;SDS011;48102;47.526;19.072;2022-12-08T09:51:17;13.35;;;10.25;;
62110;SDS011;48102;47.526;19.072;2022-12-08T09:54:23;15.73;;;10.25;;
62110;SDS011;48102;47.526;19.072;2022-12-08T09:57:31;12.13;;;9.65;;
62110;SDS011;48102;47.526;19.072;2022-12-08T10:00:34;13.13;;;11.32;;
62110;SDS011;48102;47.526;19.072;2022-12-08T10:03:37;17.73;;;11.50;;
62110;SDS011;48102;47.526;19.072;2022-12-08T10:10:25;13.93;;;9.82;;
62110;SDS011;48102;47.526;19.072;2022-12-08T10:13:38;18.00;;;11.32;;
62110;SDS011;48102;47.526;19.072;2022-12-08T10:17:17;16.10;;;11.12;;
62110;SDS011;48102;47.526;19.072;2022-12-08T10:20:25;12.37;;;9.68;;
62110;SDS011;48102;47.526;19.072;2022-12-08T10:23:39;15.52;;;10.40;;
62110;SDS011;48102;47.526;19.072;2022-12-08T10:26:44;14.85;;;11.27;;
62110;SDS011;48102;47.526;19.072;2022-12-08T10:29:48;12.23;;;9.15;;
62110;SDS011;48102;47.526;19.072;2022-12-08T10:32:52;16.12;;;10.73;;
62110;SDS011;48102;47.526;19.072;2022-12-08T10:35:56;13.05;;;9.85;;
62110;SDS011;48102;47.526;19.072;2022-12-08T10:39:00;19.08;;;10.82;;
62110;SDS011;48102;47.526;19.072;2022-12-08T10:42:07;14.50;;;10.63;;
62110;SDS011;48102;47.526;19.072;2022-12-08T10:45:25;17.90;;;10.75;;
62110;SDS011;48102;47.526;19.072;2022-12-08T10:48:30;14.37;;;11.60;;
62110;SDS011;48102;47.526;19.072;2022-12-08T10:51:39;16.98;;;11.38;;
62110;SDS011;48102;47.526;19.072;2022-12-08T10:54:43;15.15;;;11.23;;
62110;SDS011;48102;47.526;19.072;2022-12-08T10:57:46;12.80;;;10.02;;
62110;SDS011;48102;47.526;19.072;2022-12-08T11:00:53;11.30;;;8.80;;
62110;SDS011;48102;47.526;19.072;2022-12-08T11:03:59;13.80;;;9.77;;
62110;SDS011;48102;47.526;19.072;2022-12-08T11:07:05;13.27;;;10.18;;
62110;SDS011;48102;47.526;19.072;2022-12-08T11:10:16;13.18;;;9.00;;
62110;SDS011;48102;47.526;19.072;2022-12-08T11:13:22;15.02;;;11.07;;
62110;SDS011;48102;47.526;19.072;2022-12-08T11:16:27;12.82;;;9.70;;
62110;SDS011;48102;47.526;19.072;2022-12-08T11:22:39;16.25;;;10.20;;
62110;SDS011;48102;47.526;19.072;2022-12-08T11:25:47;15.93;;;8.88;;
62110;SDS011;48102;47.526;19.072;2022-12-08T11:28:51;13.18;;;9.32;;
62110;SDS011;48102;47.526;19.072;2022-12-08T11:32:16;14.60;;;9.93;;
62110;SDS011;48102;47.526;19.072;2022-12-08T11:35:19;12.65;;;8.55;;
62110;SDS011;48102;47.526;19.072;2022-12-08T11:38:27;12.02;;;9.25;;
62110;SDS011;48102;47.526;19.072;2022-12-08T11:41:34;12.80;;;9.85;;
62110;SDS011;48102;47.526;19.072;2022-12-08T11:44:43;14.25;;;9.35;;
62110;SDS011;48102;47.526;19.072;2022-12-08T11:51:17;8.57;;;6.95;;
62110;SDS011;48102;47.526;19.072;2022-12-08T11:54:29;12.75;;;7.97;;
62110;SDS011;48102;47.526;19.072;2022-12-08T11:57:35;13.15;;;7.28;;
62110;SDS011;48102;47.526;19.072;2022-12-08T12:00:39;9.05;;;6.82;;
62110;SDS011;48102;47.526;19.072;2022-12-08T12:03:43;9.32;;;6.70;;
62110;SDS011;48102;47.526;19.072;2022-12-08T12:07:14;11.15;;;5.82;;
62110;SDS011;48102;47.526;19.072;2022-12-08T12:17:20;8.13;;;5.62;;
62110;SDS011;48102;47.526;19.072;2022-12-08T12:20:34;8.65;;;6.35;;
62110;SDS011;48102;47.526;19.072;2022-12-08T12:30:13;8.15;;;5.93;;
62110;SDS011;48102;47.526;19.072;2022-12-08T12:33:21;6.53;;;5.60;;
62110;SDS011;48102;47.526;19.072;2022-12-08T12:36:25;8.35;;;5.97;;
62110;SDS011;48102;47.526;19.072;2022-12-08T12:39:28;8.13;;;5.43;;
62110;SDS011;48102;47.526;19.072;2022-12-08T12:45:43;6.78;;;5.10;;
62110;SDS011;48102;47.526;19.072;2022-12-08T12:48:47;9.88;;;4.82;;
62110;SDS011;48102;47.526;19.072;2022-12-08T12:51:53;7.82;;;5.50;;
62110;SDS011;48102;47.526;19.072;2022-12-08T12:58:01;6.97;;;4.68;;
62110;SDS011;48102;47.526;19.072;2022-12-08T13:04:30;6.80;;;4.30;;
62110;SDS011;48102;47.526;19.072;2022-12-08T13:11:00;6.37;;;4.47;;
62110;SDS011;48102;47.526;19.072;2022-12-08T13:14:05;6.65;;;4.22;;
62110;SDS011;48102;47.526;19.072;2022-12-08T13:17:24;5.35;;;4.20;;
62110;SDS011;48102;47.526;19.072;2022-12-08T13:20:30;9.73;;;7.03;;
62110;SDS011;48102;47.526;19.072;2022-12-08T13:23:45;14.18;;;9.05;;
62110;SDS011;48102;47.526;19.072;2022-12-08T13:27:33;12.48;;;8.98;;
62110;SDS011;48102;47.526;19.072;2022-12-08T13:33:45;13.07;;;9.32;;
62110;SDS011;48102;47.526;19.072;2022-12-08T13:36:50;13.55;;;9.40;;
62110;SDS011;48102;47.526;19.072;2022-12-08T13:40:17;10.43;;;7.57;;
62110;SDS011;48102;47.526;19.072;2022-12-08T13:43:34;10.45;;;7.47;;
62110;SDS011;48102;47.526;19.072;2022-12-08T13:47:01;11.12;;;8.10;;
62110;SDS011;48102;47.526;19.072;2022-12-08T13:50:35;16.10;;;7.68;;
62110;SDS011;48102;47.526;19.072;2022-12-08T13:54:16;8.30;;;6.75;;
62110;SDS011;48102;47.526;19.072;2022-12-08T13:57:41;8.35;;;5.00;;
62110;SDS011;48102;47.526;19.072;2022-12-08T14:04:25;6.60;;;5.47;;
62110;SDS011;48102;47.526;19.072;2022-12-08T14:07:50;8.82;;;5.43;;
62110;SDS011;48102;47.526;19.072;2022-12-08T14:10:57;6.87;;;5.68;;
62110;SDS011;48102;47.526;19.072;2022-12-08T14:14:07;7.72;;;5.22;;
62110;SDS011;48102;47.526;19.072;2022-12-08T14:17:54;9.52;;;4.80;;
62110;SDS011;48102;47.526;19.072;2022-12-08T14:21:03;8.48;;;5.25;;
62110;SDS011;48102;47.526;19.072;2022-12-08T14:24:24;8.23;;;5.32;;
62110;SDS011;48102;47.526;19.072;2022-12-08T14:27:31;8.60;;;5.20;;
62110;SDS011;48102;47.526;19.072;2022-12-08T14:30:36;9.90;;;6.70;;
62110;SDS011;48102;47.526;19.072;2022-12-08T14:33:40;9.50;;;6.97;;
62110;SDS011;48102;47.526;19.072;2022-12-08T14:36:44;9.60;;;6.45;;
62110;SDS011;48102;47.526;19.072;2022-12-08T14:39:47;9.82;;;6.93;;
62110;SDS011;48102;47.526;19.072;2022-12-08T14:42:52;9.68;;;6.97;;
62110;SDS011;48102;47.526;19.072;2022-12-08T14:46:19;15.02;;;7.78;;
62110;SDS011;48102;47.526;19.072;2022-12-08T14:49:33;11.73;;;8.07;;
62110;SDS011;48102;47.526;19.072;2022-12-08T14:52:40;10.82;;;8.48;;
62110;SDS011;48102;47.526;19.072;2022-12-08T14:55:45;9.80;;;7.35;;
62110;SDS011;48102;47.526;19.072;2022-12-08T14:59:00;12.75;;;7.20;;
62110;SDS011;48102;47.526;19.072;2022-12-08T15:05:20;10.32;;;6.00;;
62110;SDS011;48102;47.526;19.072;2022-12-08T15:08:28;14.25;;;6.47;;
62110;SDS011;48102;47.526;19.072;2022-12-08T15:11:33;8.68;;;6.90;;
62110;SDS011;48102;47.526;19.072;2022-12-08T15:14:41;9.98;;;7.87;;
62110;SDS011;48102;47.526;19.072;2022-12-08T15:18:10;13.88;;;7.60;;
62110;SDS011;48102;47.526;19.072;2022-12-08T15:21:23;10.82;;;7.68;;
62110;SDS011;48102;47.526;19.072;2022-12-08T15:24:31;9.57;;;6.22;;
62110;SDS011;48102;47.526;19.072;2022-12-08T15:27:37;9.40;;;7.32;;
62110;SDS011;48102;47.526;19.072;2022-12-08T15:30:51;11.15;;;7.93;;
62110;SDS011;48102;47.526;19.072;2022-12-08T15:33:54;11.88;;;7.80;;
62110;SDS011;48102;47.526;19.072;2022-12-08T15:36:57;14.50;;;9.90;;
62110;SDS011;48102;47.526;19.072;2022-12-08T15:40:00;11.45;;;10.25;;
62110;SDS011;48102;47.526;19.072;2022-12-08T15:43:02;10.90;;;8.40;;
62110;SDS011;48102;47.526;19.072;2022-12-08T15:46:05;8.90;;;7.57;;
62110;SDS011;48102;47.526;19.072;2022-12-08T15:49:15;8.48;;;6.85;;
62110;SDS011;48102;47.526;19.072;2022-12-08T15:52:20;8.95;;;7.10;;
62110;SDS011;48102;47.526;19.072;2022-12-08T15:55:25;11.90;;;6.45;;
62110;SDS011;48102;47.526;19.072;2022-12-08T15:58:28;11.52;;;6.47;;
62110;SDS011;48102;47.526;19.072;2022-12-08T16:01:51;7.53;;;6.00;;
62110;SDS011;48102;47.526;19.072;2022-12-08T16:04:54;10.20;;;5.75;;
62110;SDS011;48102;47.526;19.072;2022-12-08T16:08:17;8.85;;;5.32;;
62110;SDS011;48102;47.526;19.072;2022-12-08T16:11:40;7.93;;;6.47;;
62110;SDS011;48102;47.526;19.072;2022-12-08T16:15:11;8.35;;;5.97;;
62110;SDS011;48102;47.526;19.072;2022-12-08T16:18:35;8.23;;;6.03;;
62110;SDS011;48102;47.526;19.072;2022-12-08T16:21:40;9.82;;;7.12;;
62110;SDS011;48102;47.526;19.072;2022-12-08T16:25:03;11.43;;;6.53;;
62110;SDS011;48102;47.526;19.072;2022-12-08T16:28:23;7.05;;;5.65;;
62110;SDS011;48102;47.526;19.072;2022-12-08T16:31:46;10.60;;;7.22;;
